sensor_id;sensor_type;location;lat;lon;timestamp;pressure;altitude;pressure_sealevel;temperature;humidity
54453;BME280;40363;52.270;10.546;2022-09-27T00:00:36;74972.72;;;-147.06;84.46
54453;BME280;40363;52.270;10.546;2022-09-27T00:03:03;74954.22;;;-147.06;83.17
54453;BME280;40363;52.270;10.546;2022-09-27T00:05:30;74956.28;;;-147.06;83.10
54453;BME280;40363;52.270;10.546;2022-09-27T00:07:56;74956.28;;;-147.06;83.11
54453;BME280;40363;52.270;10.546;2022-09-27T00:10:24;74954.22;;;-147.06;83.99
54453;BME280;40363;52.270;10.546;2022-09-27T00:12:51;74968.59;;;-147.06;83.67
54453;BME280;40363;52.270;10.546;2022-09-27T00:15:18;74968.59;;;-147.06;84.50
54453;BME280;40363;52.270;10.546;2022-09-27T00:17:45;74960.38;;;-147.06;84.95
54453;BME280;40363;52.270;10.546;2022-09-27T00:20:16;74976.81;;;-147.06;85.76
54453;BME280;40363;52.270;10.546;2022-09-27T00:22:43;74968.59;;;-147.06;85.84
54453;BME280;40363;52.270;10.546;2022-09-27T00:25:12;74968.59;;;-147.06;86.58
54453;BME280;40363;52.270;10.546;2022-09-27T00:27:41;74968.59;;;-147.06;85.52
54453;BME280;40363;52.270;10.546;2022-09-27T00:30:08;74970.66;;;-147.06;84.60
54453;BME280;40363;52.270;10.546;2022-09-27T00:32:35;74952.16;;;-147.06;85.28
54453;BME280;40363;52.270;10.546;2022-09-27T00:35:02;74952.16;;;-147.06;85.84
54453;BME280;40363;52.270;10.546;2022-09-27T00:37:29;74948.06;;;-147.06;85.56
54453;BME280;40363;52.270;10.546;2022-09-27T00:39:55;74952.16;;;-147.06;85.74
54453;BME280;40363;52.270;10.546;2022-09-27T00:42:25;74968.59;;;-147.06;86.30
54453;BME280;40363;52.270;10.546;2022-09-27T00:45:05;74962.44;;;-147.06;85.33
54453;BME280;40363;52.270;10.546;2022-09-27T00:47:40;74966.56;;;-147.06;84.04
54453;BME280;40363;52.270;10.546;2022-09-27T00:50:17;74946.00;;;-147.06;84.60
54453;BME280;40363;52.270;10.546;2022-09-27T00:52:50;74935.72;;;-147.06;84.82
54453;BME280;40363;52.270;10.546;2022-09-27T00:55:22;74935.72;;;-147.06;83.94
54453;BME280;40363;52.270;10.546;2022-09-27T00:57:51;74925.47;;;-147.06;83.99
54453;BME280;40363;52.270;10.546;2022-09-27T01:00:20;74929.56;;;-147.06;84.61
54453;BME280;40363;52.270;10.546;2022-09-27T01:02:49;74915.19;;;-147.06;84.56
54453;BME280;40363;52.270;10.546;2022-09-27T01:05:19;74915.19;;;-147.06;84.08
54453;BME280;40363;52.270;10.546;2022-09-27T01:07:46;74919.28;;;-147.06;84.05
54453;BME280;40363;52.270;10.546;2022-09-27T01:10:14;74915.19;;;-147.06;84.78
54453;BME280;40363;52.270;10.546;2022-09-27T01:12:50;74911.06;;;-147.06;84.50
54453;BME280;40363;52.270;10.546;2022-09-27T01:15:26;74898.75;;;-147.06;83.74
54453;BME280;40363;52.270;10.546;2022-09-27T01:18:05;74898.75;;;-147.06;85.19
54453;BME280;40363;52.270;10.546;2022-09-27T01:21:00;74894.63;;;-147.06;83.76
54453;BME280;40363;52.270;10.546;2022-09-27T01:23:58;74888.47;;;-147.06;82.90
54453;BME280;40363;52.270;10.546;2022-09-27T01:27:00;74874.09;;;-147.06;82.16
54453;BME280;40363;52.270;10.546;2022-09-27T01:29:37;74874.09;;;-147.06;82.06
54453;BME280;40363;52.270;10.546;2022-09-27T01:32:17;74867.94;;;-147.06;81.80
54453;BME280;40363;52.270;10.546;2022-09-27T01:34:49;74890.53;;;-147.06;82.10
54453;BME280;40363;52.270;10.546;2022-09-27T01:37:25;74880.25;;;-147.06;82.25
54453;BME280;40363;52.270;10.546;2022-09-27T01:39:59;74869.97;;;-147.06;82.23
54453;BME280;40363;52.270;10.546;2022-09-27T01:42:30;74869.97;;;-147.06;81.59
54453;BME280;40363;52.270;10.546;2022-09-27T01:45:03;74867.94;;;-147.06;81.75
54453;BME280;40363;52.270;10.546;2022-09-27T01:47:38;74869.97;;;-147.06;81.75
54453;BME280;40363;52.270;10.546;2022-09-27T01:50:10;74861.75;;;-147.06;81.49
54453;BME280;40363;52.270;10.546;2022-09-27T01:52:42;74863.81;;;-147.06;81.45
54453;BME280;40363;52.270;10.546;2022-09-27T01:55:14;74859.72;;;-147.06;82.14
54453;BME280;40363;52.270;10.546;2022-09-27T01:57:45;74857.66;;;-147.06;81.83
54453;BME280;40363;52.270;10.546;2022-09-27T02:00:14;74863.81;;;-147.06;81.94
54453;BME280;40363;52.270;10.546;2022-09-27T02:02:45;74859.72;;;-147.06;81.90
54453;BME280;40363;52.270;10.546;2022-09-27T02:05:14;74865.88;;;-147.06;81.88
54453;BME280;40363;52.270;10.546;2022-09-27T02:07:47;74861.75;;;-147.06;81.93
54453;BME280;40363;52.270;10.546;2022-09-27T02:10:19;74861.75;;;-147.06;82.41
54453;BME280;40363;52.270;10.546;2022-09-27T02:12:51;74853.53;;;-147.06;82.40
54453;BME280;40363;52.270;10.546;2022-09-27T02:15:23;74855.59;;;-147.06;82.39
54453;BME280;40363;52.270;10.546;2022-09-27T02:17:56;74853.53;;;-147.06;82.45
54453;BME280;40363;52.270;10.546;2022-09-27T02:20:28;74857.66;;;-147.06;82.32
54453;BME280;40363;52.270;10.546;2022-09-27T02:23:01;74857.66;;;-147.06;82.20
54453;BME280;40363;52.270;10.546;2022-09-27T02:25:37;74849.44;;;-147.06;82.26
54453;BME280;40363;52.270;10.546;2022-09-27T02:28:14;74853.53;;;-147.06;82.22
54453;BME280;40363;52.270;10.546;2022-09-27T02:30:46;74853.53;;;-147.06;82.55
54453;BME280;40363;52.270;10.546;2022-09-27T02:33:14;74843.28;;;-147.06;82.49
54453;BME280;40363;52.270;10.546;2022-09-27T02:35:41;74849.44;;;-147.06;82.57
54453;BME280;40363;52.270;10.546;2022-09-27T02:38:08;74845.34;;;-147.06;82.36
54453;BME280;40363;52.270;10.546;2022-09-27T02:40:42;74851.50;;;-147.06;82.75
54453;BME280;40363;52.270;10.546;2022-09-27T02:43:09;74843.28;;;-147.06;82.65
54453;BME280;40363;52.270;10.546;2022-09-27T02:45:52;74837.13;;;-147.06;82.77
54453;BME280;40363;52.270;10.546;2022-09-27T02:48:30;74835.06;;;-147.06;82.47
54453;BME280;40363;52.270;10.546;2022-09-27T02:51:15;74839.16;;;-147.06;82.36
54453;BME280;40363;52.270;10.546;2022-09-27T02:53:56;74841.22;;;-147.06;82.42
54453;BME280;40363;52.270;10.546;2022-09-27T02:56:32;74843.28;;;-147.06;82.55
54453;BME280;40363;52.270;10.546;2022-09-27T02:59:06;74835.06;;;-147.06;82.39
54453;BME280;40363;52.270;10.546;2022-09-27T03:01:40;74837.13;;;-147.06;82.78
54453;BME280;40363;52.270;10.546;2022-09-27T03:04:16;74835.06;;;-147.06;82.72
54453;BME280;40363;52.270;10.546;2022-09-27T03:06:46;74835.06;;;-147.06;83.18
54453;BME280;40363;52.270;10.546;2022-09-27T03:09:17;74841.22;;;-147.06;82.95
54453;BME280;40363;52.270;10.546;2022-09-27T03:11:44;74839.16;;;-147.06;82.95
54453;BME280;40363;52.270;10.546;2022-09-27T03:14:11;74830.94;;;-147.06;82.62
54453;BME280;40363;52.270;10.546;2022-09-27T03:16:38;74816.56;;;-147.06;82.17
54453;BME280;40363;52.270;10.546;2022-09-27T03:19:05;74824.78;;;-147.06;82.79
54453;BME280;40363;52.270;10.546;2022-09-27T03:21:35;74830.94;;;-147.06;83.53
54453;BME280;40363;52.270;10.546;2022-09-27T03:24:02;74826.84;;;-147.06;83.69
54453;BME280;40363;52.270;10.546;2022-09-27T03:26:29;74820.69;;;-147.06;83.02
54453;BME280;40363;52.270;10.546;2022-09-27T03:28:55;74830.94;;;-147.06;83.89
54453;BME280;40363;52.270;10.546;2022-09-27T03:31:22;74833.00;;;-147.06;84.13
54453;BME280;40363;52.270;10.546;2022-09-27T03:33:49;74845.34;;;-147.06;83.99
54453;BME280;40363;52.270;10.546;2022-09-27T03:36:15;74837.13;;;-147.06;83.95
54453;BME280;40363;52.270;10.546;2022-09-27T03:38:43;74828.91;;;-147.06;84.23
54453;BME280;40363;52.270;10.546;2022-09-27T03:41:10;74835.06;;;-147.06;83.87
54453;BME280;40363;52.270;10.546;2022-09-27T03:43:36;74839.16;;;-147.06;84.00
54453;BME280;40363;52.270;10.546;2022-09-27T03:46:03;74843.28;;;-147.06;83.84
54453;BME280;40363;52.270;10.546;2022-09-27T03:48:30;74843.28;;;-147.06;84.45
54453;BME280;40363;52.270;10.546;2022-09-27T03:50:57;74837.13;;;-147.06;84.57
54453;BME280;40363;52.270;10.546;2022-09-27T03:53:23;74833.00;;;-147.06;84.84
54453;BME280;40363;52.270;10.546;2022-09-27T03:55:51;74826.84;;;-147.06;84.80
54453;BME280;40363;52.270;10.546;2022-09-27T03:58:21;74833.00;;;-147.06;84.79
54453;BME280;40363;52.270;10.546;2022-09-27T04:00:48;74816.56;;;-147.06;84.27
54453;BME280;40363;52.270;10.546;2022-09-27T04:03:16;74828.91;;;-147.06;84.12
54453;BME280;40363;52.270;10.546;2022-09-27T04:05:44;74824.78;;;-147.06;84.00
54453;BME280;40363;52.270;10.546;2022-09-27T04:08:11;74833.00;;;-147.06;83.99
54453;BME280;40363;52.270;10.546;2022-09-27T04:10:40;74839.16;;;-147.06;83.92
54453;BME280;40363;52.270;10.546;2022-09-27T04:13:08;74830.94;;;-147.06;84.29
54453;BME280;40363;52.270;10.546;2022-09-27T04:15:35;74835.06;;;-147.06;84.13
54453;BME280;40363;52.270;10.546;2022-09-27T04:18:03;74824.78;;;-147.06;84.04
54453;BME280;40363;52.270;10.546;2022-09-27T04:20:32;74833.00;;;-147.06;84.08
54453;BME280;40363;52.270;10.546;2022-09-27T04:22:58;74839.16;;;-147.06;83.93
54453;BME280;40363;52.270;10.546;2022-09-27T04:25:25;74841.22;;;-147.06;84.00
54453;BME280;40363;52.270;10.546;2022-09-27T04:27:52;74835.06;;;-147.06;83.72
54453;BME280;40363;52.270;10.546;2022-09-27T04:30:21;74824.78;;;-147.06;83.66
54453;BME280;40363;52.270;10.546;2022-09-27T04:32:48;74837.13;;;-147.06;83.97
54453;BME280;40363;52.270;10.546;2022-09-27T04:35:15;74833.00;;;-147.06;84.02
54453;BME280;40363;52.270;10.546;2022-09-27T04:37:55;74833.00;;;-147.06;84.19
54453;BME280;40363;52.270;10.546;2022-09-27T04:40:23;74835.06;;;-147.06;84.29
54453;BME280;40363;52.270;10.546;2022-09-27T04:42:52;74824.78;;;-147.06;84.40
54453;BME280;40363;52.270;10.546;2022-09-27T04:45:20;74826.84;;;-147.06;84.29
54453;BME280;40363;52.270;10.546;2022-09-27T04:47:48;74837.13;;;-147.06;84.44
54453;BME280;40363;52.270;10.546;2022-09-27T04:50:16;74843.28;;;-147.06;84.15
54453;BME280;40363;52.270;10.546;2022-09-27T04:52:51;74843.28;;;-147.06;83.91
54453;BME280;40363;52.270;10.546;2022-09-27T04:55:19;74841.22;;;-147.06;84.23
54453;BME280;40363;52.270;10.546;2022-09-27T04:57:48;74839.16;;;-147.06;84.22
54453;BME280;40363;52.270;10.546;2022-09-27T05:00:15;74845.34;;;-147.06;84.04
54453;BME280;40363;52.270;10.546;2022-09-27T05:02:44;74841.22;;;-147.06;83.82
54453;BME280;40363;52.270;10.546;2022-09-27T05:05:12;74847.38;;;-147.06;84.03
54453;BME280;40363;52.270;10.546;2022-09-27T05:07:39;74853.53;;;-147.06;85.42
54453;BME280;40363;52.270;10.546;2022-09-27T05:10:07;74865.88;;;-147.06;86.63
54453;BME280;40363;52.270;10.546;2022-09-27T05:12:34;74869.97;;;-147.06;86.87
54453;BME280;40363;52.270;10.546;2022-09-27T05:15:01;74874.09;;;-147.06;87.22
54453;BME280;40363;52.270;10.546;2022-09-27T05:17:28;74882.31;;;-147.06;87.71
54453;BME280;40363;52.270;10.546;2022-09-27T05:19:56;74882.31;;;-147.06;87.86
54453;BME280;40363;52.270;10.546;2022-09-27T05:22:23;74890.53;;;-147.06;88.08
54453;BME280;40363;52.270;10.546;2022-09-27T05:24:50;74890.53;;;-147.06;88.18
54453;BME280;40363;52.270;10.546;2022-09-27T05:27:16;74886.41;;;-147.06;88.45
54453;BME280;40363;52.270;10.546;2022-09-27T05:29:44;74886.41;;;-147.06;88.17
54453;BME280;40363;52.270;10.546;2022-09-27T05:32:12;74898.75;;;-147.06;88.96
54453;BME280;40363;52.270;10.546;2022-09-27T05:34:38;74906.97;;;-147.06;89.36
54453;BME280;40363;52.270;10.546;2022-09-27T05:37:08;74888.47;;;-147.06;89.25
54453;BME280;40363;52.270;10.546;2022-09-27T05:39:35;74900.81;;;-147.06;89.83
54453;BME280;40363;52.270;10.546;2022-09-27T05:42:02;74902.84;;;-147.06;89.82
54453;BME280;40363;52.270;10.546;2022-09-27T05:44:31;74896.69;;;-147.06;89.19
54453;BME280;40363;52.270;10.546;2022-09-27T05:46:59;74906.97;;;-147.06;89.51
54453;BME280;40363;52.270;10.546;2022-09-27T05:49:28;74904.91;;;-147.06;88.96
54453;BME280;40363;52.270;10.546;2022-09-27T05:51:55;74896.69;;;-147.06;88.52
54453;BME280;40363;52.270;10.546;2022-09-27T05:54:23;74909.03;;;-147.06;88.41
54453;BME280;40363;52.270;10.546;2022-09-27T05:56:53;74900.81;;;-147.06;88.52
54453;BME280;40363;52.270;10.546;2022-09-27T05:59:23;74906.97;;;-147.06;88.02
54453;BME280;40363;52.270;10.546;2022-09-27T06:01:49;74900.81;;;-147.06;87.72
54453;BME280;40363;52.270;10.546;2022-09-27T06:04:17;74913.13;;;-147.06;87.89
54453;BME280;40363;52.270;10.546;2022-09-27T06:06:44;74911.06;;;-147.06;88.12
54453;BME280;40363;52.270;10.546;2022-09-27T06:09:12;74911.06;;;-147.06;88.10
54453;BME280;40363;52.270;10.546;2022-09-27T06:11:41;74923.41;;;-147.06;88.45
54453;BME280;40363;52.270;10.546;2022-09-27T06:14:09;74925.47;;;-147.06;88.96
54453;BME280;40363;52.270;10.546;2022-09-27T06:16:38;74929.56;;;-147.06;88.70
54453;BME280;40363;52.270;10.546;2022-09-27T06:19:04;74929.56;;;-147.06;88.89
54453;BME280;40363;52.270;10.546;2022-09-27T06:21:31;74927.50;;;-147.06;88.86
54453;BME280;40363;52.270;10.546;2022-09-27T06:23:58;74927.50;;;-147.06;88.83
54453;BME280;40363;52.270;10.546;2022-09-27T06:26:26;74921.34;;;-147.06;88.70
54453;BME280;40363;52.270;10.546;2022-09-27T06:28:59;74931.63;;;-147.06;88.78
54453;BME280;40363;52.270;10.546;2022-09-27T06:31:26;74943.94;;;-147.06;89.48
54453;BME280;40363;52.270;10.546;2022-09-27T06:33:53;74956.28;;;-147.06;89.57
54453;BME280;40363;52.270;10.546;2022-09-27T06:36:19;74943.94;;;-147.06;89.66
54453;BME280;40363;52.270;10.546;2022-09-27T06:38:46;74943.94;;;-147.06;89.54
54453;BME280;40363;52.270;10.546;2022-09-27T06:41:13;74952.16;;;-147.06;89.58
54453;BME280;40363;52.270;10.546;2022-09-27T06:43:40;74950.13;;;-147.06;89.49
54453;BME280;40363;52.270;10.546;2022-09-27T06:46:08;74958.34;;;-147.06;90.31
54453;BME280;40363;52.270;10.546;2022-09-27T06:48:35;74964.50;;;-147.06;89.78
54453;BME280;40363;52.270;10.546;2022-09-27T06:51:04;74964.50;;;-147.06;89.88
54453;BME280;40363;52.270;10.546;2022-09-27T06:53:30;74964.50;;;-147.06;89.83
54453;BME280;40363;52.270;10.546;2022-09-27T06:56:02;74972.72;;;-147.06;89.46
54453;BME280;40363;52.270;10.546;2022-09-27T06:58:29;74974.78;;;-147.06;89.77
54453;BME280;40363;52.270;10.546;2022-09-27T07:01:14;74974.78;;;-147.06;89.61
54453;BME280;40363;52.270;10.546;2022-09-27T07:03:41;74980.94;;;-147.06;89.69
54453;BME280;40363;52.270;10.546;2022-09-27T07:06:15;74978.88;;;-147.06;89.56
54453;BME280;40363;52.270;10.546;2022-09-27T07:08:42;74993.25;;;-147.06;89.83
54453;BME280;40363;52.270;10.546;2022-09-27T07:11:08;74995.31;;;-147.06;89.79
54453;BME280;40363;52.270;10.546;2022-09-27T07:13:35;74989.16;;;-147.06;89.92
54453;BME280;40363;52.270;10.546;2022-09-27T07:16:07;74985.03;;;-147.06;89.67
54453;BME280;40363;52.270;10.546;2022-09-27T07:18:35;74985.03;;;-147.06;89.79
54453;BME280;40363;52.270;10.546;2022-09-27T07:21:02;74999.41;;;-147.06;90.14
54453;BME280;40363;52.270;10.546;2022-09-27T07:23:28;74997.38;;;-147.06;90.60
54453;BME280;40363;52.270;10.546;2022-09-27T07:25:55;75007.63;;;-147.06;90.33
54453;BME280;40363;52.270;10.546;2022-09-27T07:28:21;75015.84;;;-147.06;90.63
54453;BME280;40363;52.270;10.546;2022-09-27T07:30:48;75017.91;;;-147.06;90.68
54453;BME280;40363;52.270;10.546;2022-09-27T07:33:15;75017.91;;;-147.06;90.77
54453;BME280;40363;52.270;10.546;2022-09-27T07:35:43;75019.97;;;-147.06;90.54
54453;BME280;40363;52.270;10.546;2022-09-27T07:38:10;75024.06;;;-147.06;91.00
54453;BME280;40363;52.270;10.546;2022-09-27T07:40:38;75022.03;;;-147.06;90.83
54453;BME280;40363;52.270;10.546;2022-09-27T07:43:05;75022.03;;;-147.06;91.07
54453;BME280;40363;52.270;10.546;2022-09-27T07:45:35;75022.03;;;-147.06;91.31
54453;BME280;40363;52.270;10.546;2022-09-27T07:48:03;75019.97;;;-147.06;90.92
54453;BME280;40363;52.270;10.546;2022-09-27T07:50:30;75034.34;;;-147.06;90.86
54453;BME280;40363;52.270;10.546;2022-09-27T07:52:58;75046.69;;;-147.06;91.27
54453;BME280;40363;52.270;10.546;2022-09-27T07:55:25;75046.69;;;-147.06;91.22
54453;BME280;40363;52.270;10.546;2022-09-27T07:58:01;75046.69;;;-147.06;90.59
54453;BME280;40363;52.270;10.546;2022-09-27T08:00:27;75056.94;;;-147.06;90.85
54453;BME280;40363;52.270;10.546;2022-09-27T08:02:54;75048.72;;;-147.06;90.10
54453;BME280;40363;52.270;10.546;2022-09-27T08:05:21;75050.78;;;-147.06;90.52
54453;BME280;40363;52.270;10.546;2022-09-27T08:07:53;75046.69;;;-147.06;90.24
54453;BME280;40363;52.270;10.546;2022-09-27T08:10:21;75050.78;;;-147.06;90.11
54453;BME280;40363;52.270;10.546;2022-09-27T08:12:49;75030.25;;;-147.06;89.60
54453;BME280;40363;52.270;10.546;2022-09-27T08:15:16;75036.41;;;-147.06;89.44
54453;BME280;40363;52.270;10.546;2022-09-27T08:17:45;75022.03;;;-147.06;89.21
54453;BME280;40363;52.270;10.546;2022-09-27T08:20:12;75024.06;;;-147.06;88.47
54453;BME280;40363;52.270;10.546;2022-09-27T08:22:40;75011.75;;;-147.06;88.06
54453;BME280;40363;52.270;10.546;2022-09-27T08:25:07;75003.53;;;-147.06;87.59
54453;BME280;40363;52.270;10.546;2022-09-27T08:27:35;75005.59;;;-147.06;87.06
54453;BME280;40363;52.270;10.546;2022-09-27T08:30:04;74993.25;;;-147.06;87.00
54453;BME280;40363;52.270;10.546;2022-09-27T08:32:33;74978.88;;;-147.06;86.81
54453;BME280;40363;52.270;10.546;2022-09-27T08:35:00;74985.03;;;-147.06;86.29
54453;BME280;40363;52.270;10.546;2022-09-27T08:37:27;74983.00;;;-147.06;86.75
54453;BME280;40363;52.270;10.546;2022-09-27T08:39:54;74995.31;;;-147.06;85.79
54453;BME280;40363;52.270;10.546;2022-09-27T08:42:28;75007.63;;;-147.06;86.34
54453;BME280;40363;52.270;10.546;2022-09-27T08:45:02;75003.53;;;-147.06;86.02
54453;BME280;40363;52.270;10.546;2022-09-27T08:47:35;74995.31;;;-147.06;84.85
54453;BME280;40363;52.270;10.546;2022-09-27T08:50:13;74997.38;;;-147.06;85.03
54453;BME280;40363;52.270;10.546;2022-09-27T08:52:46;75005.59;;;-147.06;85.05
54453;BME280;40363;52.270;10.546;2022-09-27T08:55:19;74997.38;;;-147.06;84.90
54453;BME280;40363;52.270;10.546;2022-09-27T08:57:51;75001.47;;;-147.06;84.88
54453;BME280;40363;52.270;10.546;2022-09-27T09:00:30;75013.81;;;-147.06;84.79
54453;BME280;40363;52.270;10.546;2022-09-27T09:03:02;75034.34;;;-147.06;85.21
54453;BME280;40363;52.270;10.546;2022-09-27T09:05:31;75030.25;;;-147.06;85.77
54453;BME280;40363;52.270;10.546;2022-09-27T09:08:20;75003.53;;;-147.06;84.58
54453;BME280;40363;52.270;10.546;2022-09-27T09:10:52;75009.69;;;-147.06;84.69
54453;BME280;40363;52.270;10.546;2022-09-27T09:14:07;75038.47;;;-147.06;85.90
54453;BME280;40363;52.270;10.546;2022-09-27T09:16:44;75077.50;;;-147.06;86.39
54453;BME280;40363;52.270;10.546;2022-09-27T09:19:28;75067.22;;;-147.06;86.36
54453;BME280;40363;52.270;10.546;2022-09-27T09:22:06;75077.50;;;-147.06;85.76
54453;BME280;40363;52.270;10.546;2022-09-27T09:24:48;75065.16;;;-147.06;86.01
54453;BME280;40363;52.270;10.546;2022-09-27T09:27:24;75056.94;;;-147.06;85.31
54453;BME280;40363;52.270;10.546;2022-09-27T09:30:02;75065.16;;;-147.06;85.79
54453;BME280;40363;52.270;10.546;2022-09-27T09:32:42;75054.91;;;-147.06;85.82
54453;BME280;40363;52.270;10.546;2022-09-27T09:35:15;75042.56;;;-147.06;85.41
54453;BME280;40363;52.270;10.546;2022-09-27T09:37:46;75061.06;;;-147.06;86.00
54453;BME280;40363;52.270;10.546;2022-09-27T09:40:21;75050.78;;;-147.06;86.17
54453;BME280;40363;52.270;10.546;2022-09-27T09:42:53;75069.28;;;-147.06;86.73
54453;BME280;40363;52.270;10.546;2022-09-27T09:45:25;75077.50;;;-147.06;87.84
54453;BME280;40363;52.270;10.546;2022-09-27T09:47:59;75085.72;;;-147.06;87.46
54453;BME280;40363;52.270;10.546;2022-09-27T09:50:30;75065.16;;;-147.06;86.90
54453;BME280;40363;52.270;10.546;2022-09-27T09:53:03;75028.19;;;-147.06;85.85
54453;BME280;40363;52.270;10.546;2022-09-27T09:55:39;75009.69;;;-147.06;84.95
54453;BME280;40363;52.270;10.546;2022-09-27T09:58:15;74931.63;;;-147.06;82.96
54453;BME280;40363;52.270;10.546;2022-09-27T10:00:46;74919.28;;;-147.06;82.26
54453;BME280;40363;52.270;10.546;2022-09-27T10:03:16;74906.97;;;-147.06;81.83
54453;BME280;40363;52.270;10.546;2022-09-27T10:05:48;74861.75;;;-147.06;79.96
54453;BME280;40363;52.270;10.546;2022-09-27T10:08:18;74861.75;;;-147.06;79.74
54453;BME280;40363;52.270;10.546;2022-09-27T10:10:45;74906.97;;;-147.06;80.68
54453;BME280;40363;52.270;10.546;2022-09-27T10:13:14;74923.41;;;-147.06;81.14
54453;BME280;40363;52.270;10.546;2022-09-27T10:15:43;74935.72;;;-147.06;81.13
54453;BME280;40363;52.270;10.546;2022-09-27T10:18:17;74960.38;;;-147.06;80.30
54453;BME280;40363;52.270;10.546;2022-09-27T10:20:48;74974.78;;;-147.06;81.07
54453;BME280;40363;52.270;10.546;2022-09-27T10:23:17;74966.56;;;-147.06;81.98
54453;BME280;40363;52.270;10.546;2022-09-27T10:25:48;74976.81;;;-147.06;81.64
54453;BME280;40363;52.270;10.546;2022-09-27T10:28:31;74919.28;;;-147.06;79.82
54453;BME280;40363;52.270;10.546;2022-09-27T10:30:59;74935.72;;;-147.06;80.81
54453;BME280;40363;52.270;10.546;2022-09-27T10:33:29;74960.38;;;-147.06;80.66
54453;BME280;40363;52.270;10.546;2022-09-27T10:35:58;74972.72;;;-147.06;80.39
54453;BME280;40363;52.270;10.546;2022-09-27T10:38:28;74985.03;;;-147.06;80.90
54453;BME280;40363;52.270;10.546;2022-09-27T10:41:15;74997.38;;;-147.06;81.45
54453;BME280;40363;52.270;10.546;2022-09-27T10:43:42;74946.00;;;-147.06;80.02
54453;BME280;40363;52.270;10.546;2022-09-27T10:46:16;74802.19;;;-147.06;75.01
54453;BME280;40363;52.270;10.546;2022-09-27T10:48:46;74767.25;;;-147.06;72.34
54453;BME280;40363;52.270;10.546;2022-09-27T10:51:27;74769.31;;;-147.06;71.51
54453;BME280;40363;52.270;10.546;2022-09-27T10:53:55;74705.63;;;-147.06;71.47
54453;BME280;40363;52.270;10.546;2022-09-27T10:56:27;74648.09;;;-147.06;69.13
54453;BME280;40363;52.270;10.546;2022-09-27T10:59:14;74656.31;;;-147.06;66.83
54453;BME280;40363;52.270;10.546;2022-09-27T11:01:44;74730.28;;;-147.06;67.86
54453;BME280;40363;52.270;10.546;2022-09-27T11:04:20;74771.38;;;-147.06;69.25
54453;BME280;40363;52.270;10.546;2022-09-27T11:06:48;74785.75;;;-147.06;69.83
54453;BME280;40363;52.270;10.546;2022-09-27T11:09:18;74765.19;;;-147.06;69.96
54453;BME280;40363;52.270;10.546;2022-09-27T11:11:48;74759.03;;;-147.06;68.34
54453;BME280;40363;52.270;10.546;2022-09-27T11:14:19;74740.56;;;-147.06;67.46
54453;BME280;40363;52.270;10.546;2022-09-27T11:16:53;74738.50;;;-147.06;66.11
54453;BME280;40363;52.270;10.546;2022-09-27T11:19:35;74748.78;;;-147.06;65.92
54453;BME280;40363;52.270;10.546;2022-09-27T11:22:13;74748.78;;;-147.06;66.42
54453;BME280;40363;52.270;10.546;2022-09-27T11:24:51;74701.50;;;-147.06;66.84
54453;BME280;40363;52.270;10.546;2022-09-27T11:27:30;74703.56;;;-147.06;66.10
54453;BME280;40363;52.270;10.546;2022-09-27T11:30:04;74656.31;;;-147.06;65.46
54453;BME280;40363;52.270;10.546;2022-09-27T11:35:43;74652.22;;;-147.06;66.15
54453;BME280;40363;52.270;10.546;2022-09-27T11:38:17;74680.97;;;-147.06;64.95
54453;BME280;40363;52.270;10.546;2022-09-27T11:40:59;74705.63;;;-147.06;65.59
54453;BME280;40363;52.270;10.546;2022-09-27T11:43:40;74796.03;;;-147.06;67.11
54453;BME280;40363;52.270;10.546;2022-09-27T11:46:19;74927.50;;;-147.06;72.06
54453;BME280;40363;52.270;10.546;2022-09-27T11:51:57;74983.00;;;-147.06;74.93
54453;BME280;40363;52.270;10.546;2022-09-27T11:54:45;75003.53;;;-147.06;75.40
54453;BME280;40363;52.270;10.546;2022-09-27T11:57:19;75050.78;;;-147.06;77.25
54453;BME280;40363;52.270;10.546;2022-09-27T12:00:13;75050.78;;;-147.06;77.01
54453;BME280;40363;52.270;10.546;2022-09-27T12:03:03;75054.91;;;-147.06;77.06
54453;BME280;40363;52.270;10.546;2022-09-27T12:05:39;75077.50;;;-147.06;76.52
54453;BME280;40363;52.270;10.546;2022-09-27T12:08:35;75069.28;;;-147.06;77.75
54453;BME280;40363;52.270;10.546;2022-09-27T12:11:13;75083.66;;;-147.06;77.81
54453;BME280;40363;52.270;10.546;2022-09-27T12:13:47;75083.66;;;-147.06;77.47
54453;BME280;40363;52.270;10.546;2022-09-27T12:16:16;75050.78;;;-147.06;77.34
54453;BME280;40363;52.270;10.546;2022-09-27T12:18:45;75030.25;;;-147.06;76.22
54453;BME280;40363;52.270;10.546;2022-09-27T12:21:16;74991.19;;;-147.06;76.11
54453;BME280;40363;52.270;10.546;2022-09-27T12:23:48;74993.25;;;-147.06;75.06
54453;BME280;40363;52.270;10.546;2022-09-27T12:26:17;74997.38;;;-147.06;76.42
54453;BME280;40363;52.270;10.546;2022-09-27T12:28:50;74993.25;;;-147.06;76.19
54453;BME280;40363;52.270;10.546;2022-09-27T12:31:21;74997.38;;;-147.06;76.42
54453;BME280;40363;52.270;10.546;2022-09-27T12:33:59;75005.59;;;-147.06;76.00
54453;BME280;40363;52.270;10.546;2022-09-27T12:36:31;75026.13;;;-147.06;76.26
54453;BME280;40363;52.270;10.546;2022-09-27T12:39:05;75040.50;;;-147.06;77.74
54453;BME280;40363;52.270;10.546;2022-09-27T12:41:40;75056.94;;;-147.06;77.62
54453;BME280;40363;52.270;10.546;2022-09-27T12:44:10;75059.00;;;-147.06;78.57
54453;BME280;40363;52.270;10.546;2022-09-27T12:46:45;75042.56;;;-147.06;77.97
54453;BME280;40363;52.270;10.546;2022-09-27T12:49:21;75038.47;;;-147.06;77.27
54453;BME280;40363;52.270;10.546;2022-09-27T12:51:55;75003.53;;;-147.06;76.49
54453;BME280;40363;52.270;10.546;2022-09-27T12:54:35;75011.75;;;-147.06;76.80
54453;BME280;40363;52.270;10.546;2022-09-27T12:57:15;75017.91;;;-147.06;76.79